« 定点 富山空港 2019/8/21 wed | トップページ | 令和元年度射水市総合防災訓練 射水市 2019/8/25 sun »

2019/08/24

ヘリコプター&防災・防犯フェスティバル2019 小矢部市 2019/8/24 sat

小生にとっては3年ぶりの小矢部へりフェス。朝からお出かけしました。長編です。

RJNT 232300Z 23004KT 170V260 9999 FEW030 SCT070 BKN/// 24/20 Q1009

20190824_oyave_00jg10b

9時前に第10音楽隊到着

RJNT 240000Z VRB02KT 9999 FEW030 BKN/// 26/19 Q1010

20190824_oyave_01jg382si

一番近い富山駐屯地の382施設隊は、押っ取り刀で

20190824_oyave_02ja18yt

地元小矢部の大和トランスポートのX

20190824_oyave_03ja725y

JA725Y R44 アドバンスエアーの遊覧機

20190824_oyave_04ja608a

ANA751 RJTT-RJNK JA608A B767-381ER

20190824_oyave_05ja18yt

シートを剥いで、お披露目です。 JA18YT B505

20190824_oyave_06ja618k

JA618K R44

20190824_oyave_07ja09tc

JA09TC R44 OKK

20190824_oyave_08ja358g

JA358G B505 SIJ

20190824_oyave_09ja110n

JA110N R22

20190824_oyave_10ja139t

初参加の県警「つるぎ」さん

20190824_oyave_11ja139t

なかなか見れない機動を見せて・・

RJNT 240100Z 23003KT 170V300 9999 FEW040 BKN/// 27/19 Q1009

20190824_oyave_12ja139t

ひとまず着陸

20190824_oyave_13jg31308

経路の天候のため遅れていた陸自の卵が続きます

20190824_oyave_14jg31308

JG31308 OH-6D X

20190824_oyave_15ja139t

退避して待機していた県警さんが所定の位置へ

20190824_oyave_16ja139t

JA139T AW139 富山県警察

### whitewing681さんの動画 ###

#####

20190824_oyave_17ja152t

おー、これは初見 5月登録7月移転で富山いすゞ所有の新品

20190824_oyave_18ja152t

JA152T B505

20190824_oyave_19ja725y

JA725Y 遊覧飛行が始まりました。今年はこれ一機。

20190824_oyave_20ja200c

JA200C R22

20190824_oyave_21jg41917

JG41917 UH-1J MH

20190824_oyave_22ja6768

午前のデモは、富山県消防防災へり「とやま」さん

20190824_oyave_23ja6768

飛来早々、救難展示から開始

20190824_oyave_24ja6768

救難隊員がいっぱい出張ってます。

20190824_oyave_25ja6768

救難員が準備をしている間に

20190824_oyave_26ja6768

飛行展示

20190824_oyave_27ja6768

この飛行をココで見れるのは今年が最後

20190824_oyave_28ja6768

次は山岳救助デモ

20190824_oyave_29ja6768

ホイストで降下します。

20190824_oyave_30ja6768

同様な任務を実施する両雄、県警さんが見学中

20190824_oyave_31ja6768

救助完了

20190824_oyave_32ja6768

JA6768 B412EP 富山県消防防災

RJNT 240200Z 26006KT 210V300 9999 FEW030 SCT/// 29/19 Q100

20190824_oyave_33mot

国土交通省さんのTEC-FORCE 是非、へりで来てとリクエスト

20190824_oyave_34po

警察さんと電力さん

20190824_oyave_35ja152t

JA152T どこかへフライト

20190824_oyave_36jg

富山駐屯地は、炊事車を持ち込み

20190824_oyave_37jg

金沢の第14普通科連隊からは軽装甲機動車と高機動車

20190824_oyave_38ja139t

小矢部のマスコット、メルギュー君が応援に

20190824_oyave_39ja139t

メルモモちゃんもいるメル

20190824_oyave_40ja139t

この日一番の人気者

20190824_oyave_41jg31308

明野のOH-6さんも余命わずか

20190824_oyave_42jg31308

緊急速報

20190824_oyave_43jg31308

じっくりと見学

20190824_oyave_44jg41917

UHさんは八尾から

20190824_oyave_45jg41917

こちらも、ゆっくりと

20190824_oyave_46ja6768

防災さんは、人だかり

20190824_oyave_47jg51818

ラストバートルは健在

20190824_oyave_48ja152t

JA152T 帰ってきました

20190824_oyave_49ja152t

これからの活動が気になります

20190824_oyave_50ja6768

防災さんは、帰り支度

20190824_oyave_51ja6768

今日は、実任務が入らなくて良かった

20190824_oyave_52ja6768

ビシッと敬礼して、さようなら

20190824_oyave_53ja7875

JA7875 R22

20190824_oyave_54ja18yt

ジェットレンジャーX並び

20190824_oyave_55ja358g

こちらもX これからタービンへりとして増えるのかな

20190824_oyave_56ja007x

JA007X R44 がお出かけ

20190824_oyave_57ja46mt

JA46MT R44

RJNT 240300Z 25008KT 220V280 9999 FEW030 29/18 Q1009

20190824_oyave_58ja725y

お昼時間にパラジャンプ

20190824_oyave_59pj

雲に隠れたところで、ドロップ

20190824_oyave_60dochel

ホール内のドクヘリ展示

20190824_oyave_61bousai

防災さんは、装備品展示

RJNT 240300Z 25008KT 220V280 9999 FEW030 29/18 Q1009

20190824_oyave_62ja139t

フィールドに戻って、ほとんど誰もいない状態

20190824_oyave_63ja139t

みんな警察犬に行ってます。動物には勝てない?

20190824_oyave_64ja725y

空は、もう秋の装い

RJNT 240500Z 28010KT 250V310 9999 FEW030 BKN/// 29/20 Q1008

20190824_oyave_65ja10ym

午後の展示はドクターへり

20190824_oyave_66ja10ym

JA10YM A109SP SAK 富山県ドクターヘリ

20190824_oyave_67ja10ym

今朝は、小矢部基地には戻っていなかった模様

20190824_oyave_68ja10ym

あっという間に人だかり

20190824_oyave_69mel

牛コンビも人気者

20190824_oyave_70ja152t

JA152T

20190824_oyave_71ja333v

JA333V R44

20190824_oyave_72ja152t

JA152T

RJNT 240600Z 29009KT 260V320 9999 VCSH FEW020 SCT030 BKN/// 28/20 Q1009

20190824_oyave_73ja10ym

ドクヘリさんお帰り

20190824_oyave_74ja10ym

JA10YM

20190824_oyave_75jg41917

陸自ハンターさんもお帰り

20190824_oyave_76jg41917

JG41917

20190824_oyave_77jg31308

かわいいヤツがいなくなるのは、寂しいねぇ

20190824_oyave_78jg31308

軽快に機動飛行

20190824_oyave_79jg31308

JG31308

20190824_oyave_80ja139t

トリは県警さん

20190824_oyave_81ja139t

これからも、広報お願いします。

20190824_oyave_82ja139t

20190824_oyave_83ja139t

20190824_oyave_84ja139t

20190824_oyave_85ja139t

JA139T

小生は、今日だけの参加です。明日も朝から開催されますので、是非お越しください。

|

« 定点 富山空港 2019/8/21 wed | トップページ | 令和元年度射水市総合防災訓練 射水市 2019/8/25 sun »

場外」カテゴリの記事

警務消防」カテゴリの記事

コメント

コメントを書く



(ウェブ上には掲載しません)


コメントは記事投稿者が公開するまで表示されません。



« 定点 富山空港 2019/8/21 wed | トップページ | 令和元年度射水市総合防災訓練 射水市 2019/8/25 sun »